Terminal Aerodrome Forecast
Issued by NWS Wilmington, OH

Home | Current Version | Previous Version | Text Only | Print | Product List | Glossary On
Versions: 1 2 3 4 5 6 7 8 9 10 11 12 13 14 15 16 17
200
FTUS41 KILN 261739
TAFILN
TAF
KILN 261739Z 2618/2718 19010KT 6SM -SHRA BR SCT025 OVC035
     FM261830 19011KT P6SM VCSH SCT025 OVC035
     FM262200 19011KT P6SM -SHRA VCTS SCT025CB OVC035
      TEMPO 2623/2701 VRB10G18KT 2SM -TSRA BR BKN015CB
     FM270100 20006KT P6SM VCSH SCT025 BKN045
     FM270500 23007KT P6SM SCT025 BKN035
     FM270900 23005KT P6SM BKN020
     FM271400 20009KT P6SM SCT025 BKN035=

USA.gov is the U.S. government's official web portal to all federal, state and local government web resources and services.